Time;durP1;ratioP1;P1;durP2;ratioP2;P2;SDS_P1;SDS_P2;PMS_P1;PMS_P2;Temp;Humidity;BMP_temperature;BMP_pressure;BME280_temperature;BME280_humidity;BME280_pressure;Samples;Min_cycle;Max_cycle;Signal;HPM_P1;HPM_P2
2023/12/10 00:00:34;;;;;;;0.85;0.85;;;8.30;99.90;;;;;;5115712;28;20493;-70
2023/12/10 00:02:59;;;;;;;0.80;0.80;;;8.20;99.90;;;;;;5114635;28;20040;-70
2023/12/10 00:05:25;;;;;;;0.80;0.80;;;8.20;99.90;;;;;;5115241;28;20477;-71
2023/12/10 00:07:51;;;;;;;0.90;0.90;;;8.20;99.90;;;;;;5115141;28;20039;-70
2023/12/10 00:10:16;;;;;;;0.88;0.88;;;8.10;99.90;;;;;;5115157;28;20036;-71
2023/12/10 00:12:42;;;;;;;0.90;0.90;;;8.10;99.90;;;;;;5115359;27;20363;-70
2023/12/10 00:15:08;;;;;;;1.67;1.60;;;8.00;99.90;;;;;;5115323;28;20460;-70
2023/12/10 00:17:34;;;;;;;0.88;0.88;;;8.00;99.90;;;;;;5115176;28;20443;-71
2023/12/10 00:20:00;;;;;;;0.82;0.82;;;8.00;99.90;;;;;;5115008;28;20082;-70
2023/12/10 00:22:26;;;;;;;1.20;1.10;;;8.00;99.90;;;;;;5115490;28;20039;-70
2023/12/10 00:24:51;;;;;;;0.80;0.80;;;8.00;99.90;;;;;;5114561;28;20036;-70
2023/12/10 00:27:17;;;;;;;4.68;1.00;;;7.90;99.90;;;;;;5114891;28;20036;-70
2023/12/10 00:29:43;;;;;;;0.90;0.90;;;7.90;99.90;;;;;;5114716;28;20109;-70
2023/12/10 00:32:08;;;;;;;0.82;0.82;;;7.90;99.90;;;;;;5115003;28;20071;-70
2023/12/10 00:34:34;;;;;;;1.10;1.00;;;7.90;99.90;;;;;;5114768;28;20039;-70
2023/12/10 00:37:00;;;;;;;0.80;0.80;;;7.90;99.90;;;;;;5114631;28;20053;-71
2023/12/10 00:39:26;;;;;;;0.80;0.80;;;7.90;99.90;;;;;;5114611;28;20352;-71
2023/12/10 00:41:51;;;;;;;0.90;0.90;;;7.80;99.90;;;;;;5114450;28;20041;-70
2023/12/10 00:44:17;;;;;;;0.80;0.80;;;7.90;99.90;;;;;;5114286;28;20035;-71
2023/12/10 00:46:43;;;;;;;2.30;2.17;;;7.90;99.90;;;;;;5114527;28;20046;-70
2023/12/10 00:49:09;;;;;;;1.08;1.02;;;7.90;99.90;;;;;;5114547;28;20502;-71
2023/12/10 00:51:35;;;;;;;0.90;0.90;;;7.80;99.90;;;;;;5114474;28;20089;-70
2023/12/10 00:54:01;;;;;;;0.90;0.90;;;7.90;99.90;;;;;;5114147;28;20036;-70
2023/12/10 00:56:26;;;;;;;15.25;3.25;;;7.90;99.90;;;;;;5114349;28;20043;-70
2023/12/10 00:58:52;;;;;;;0.90;0.90;;;7.90;99.90;;;;;;5114371;28;20035;-70
2023/12/10 01:01:18;;;;;;;0.82;0.82;;;7.90;99.90;;;;;;5114187;28;20039;-70
2023/12/10 01:03:44;;;;;;;0.90;0.90;;;8.00;99.90;;;;;;5114298;28;20051;-71
2023/12/10 01:06:10;;;;;;;4.00;3.60;;;8.00;99.90;;;;;;5114196;28;20044;-70
2023/12/10 01:08:35;;;;;;;1.13;1.05;;;8.00;99.90;;;;;;5114164;28;20127;-70
2023/12/10 01:11:02;;;;;;;1.55;1.45;;;8.00;99.90;;;;;;5114219;28;20100;-71
2023/12/10 01:13:28;;;;;;;0.80;0.80;;;8.10;99.90;;;;;;5114154;28;20387;-70
2023/12/10 01:15:54;;;;;;;0.90;0.90;;;8.10;99.90;;;;;;5114158;28;20042;-71
2023/12/10 01:18:21;;;;;;;0.90;0.90;;;8.10;99.90;;;;;;5113868;28;20077;-70
2023/12/10 01:20:46;;;;;;;1.00;1.00;;;8.10;99.90;;;;;;5113771;28;20383;-70
2023/12/10 01:23:14;;;;;;;0.80;0.80;;;8.10;99.90;;;;;;5113969;28;20047;-70
2023/12/10 01:25:40;;;;;;;0.88;0.88;;;8.10;99.90;;;;;;5113966;28;20062;-71
2023/12/10 01:28:06;;;;;;;0.90;0.90;;;8.00;99.90;;;;;;5114073;28;20031;-70
2023/12/10 01:30:32;;;;;;;1.37;1.27;;;7.90;99.90;;;;;;5113861;28;20472;-70
2023/12/10 01:32:58;;;;;;;0.90;0.90;;;7.90;99.90;;;;;;5113922;28;20105;-70
2023/12/10 01:35:24;;;;;;;1.10;1.05;;;7.90;99.90;;;;;;5114070;28;20375;-70
2023/12/10 01:37:51;;;;;;;0.80;0.80;;;7.90;99.90;;;;;;5113691;28;20043;-70
2023/12/10 01:40:17;;;;;;;0.90;0.90;;;7.80;99.90;;;;;;5113666;28;20528;-70
2023/12/10 01:42:46;;;;;;;0.80;0.80;;;7.80;99.90;;;;;;5114262;28;20039;-70
2023/12/10 01:45:13;;;;;;;0.85;0.85;;;7.80;99.90;;;;;;5113818;28;20039;-70
2023/12/10 01:47:41;;;;;;;0.90;0.90;;;7.80;99.90;;;;;;5114437;28;20105;-70
2023/12/10 01:50:12;;;;;;;0.80;0.80;;;7.70;99.90;;;;;;5113751;28;20119;-70
2023/12/10 01:52:38;;;;;;;0.85;0.85;;;7.70;99.90;;;;;;5113892;28;20036;-70
2023/12/10 01:55:05;;;;;;;0.85;0.85;;;7.70;99.90;;;;;;5114521;28;20043;-70
2023/12/10 01:57:33;;;;;;;0.90;0.90;;;7.70;99.90;;;;;;5113790;28;20074;-70
2023/12/10 01:59:59;;;;;;;0.90;0.90;;;7.70;99.90;;;;;;5114041;28;20027;-71
2023/12/10 02:02:26;;;;;;;0.80;0.80;;;7.60;99.90;;;;;;5112782;28;20039;-70
2023/12/10 02:04:54;;;;;;;0.90;0.90;;;7.60;99.90;;;;;;5113601;28;20122;-70
2023/12/10 02:07:23;;;;;;;1.00;1.00;;;7.60;99.90;;;;;;5114126;28;20058;-70
2023/12/10 02:09:49;;;;;;;1.60;1.50;;;7.60;99.90;;;;;;5113382;28;20039;-71
2023/12/10 02:12:19;;;;;;;0.90;0.90;;;7.60;99.90;;;;;;5113917;28;20122;-70
2023/12/10 02:14:45;;;;;;;0.90;0.90;;;7.60;99.90;;;;;;5113878;28;20039;-70
2023/12/10 02:17:10;;;;;;;0.90;0.90;;;7.60;99.90;;;;;;5113520;28;20489;-70
2023/12/10 02:19:36;;;;;;;0.95;0.93;;;7.60;99.90;;;;;;5113229;28;20495;-71
2023/12/10 02:22:04;;;;;;;1.25;1.17;;;7.60;99.90;;;;;;5113522;28;20382;-70
2023/12/10 02:24:44;;;;;;;1.52;1.42;;;7.60;99.90;;;;;;5113576;28;20122;-70
2023/12/10 02:27:10;;;;;;;1.20;1.10;;;7.60;99.90;;;;;;5117092;28;20085;-71
2023/12/10 02:29:36;;;;;;;0.90;0.90;;;7.60;99.90;;;;;;5117046;28;20048;-70
2023/12/10 02:32:01;;;;;;;2.30;2.15;;;7.60;99.90;;;;;;5117027;28;20043;-71
2023/12/10 02:34:27;;;;;;;0.90;0.90;;;7.50;99.90;;;;;;5117015;28;20031;-70
2023/12/10 02:36:53;;;;;;;1.77;1.63;;;7.50;99.90;;;;;;5116918;28;20038;-70
2023/12/10 02:39:19;;;;;;;0.80;0.80;;;7.50;99.90;;;;;;5116947;28;20118;-70
2023/12/10 02:41:45;;;;;;;0.90;0.90;;;7.50;99.90;;;;;;5117055;28;20032;-71
2023/12/10 02:44:10;;;;;;;0.90;0.90;;;7.60;99.90;;;;;;5116760;28;20479;-71
2023/12/10 02:46:36;;;;;;;0.90;0.90;;;7.50;99.90;;;;;;5116570;28;20085;-71
2023/12/10 02:49:02;;;;;;;1.02;1.00;;;7.50;99.90;;;;;;5116250;28;20074;-71
2023/12/10 02:51:27;;;;;;;0.88;0.88;;;7.50;99.90;;;;;;5116555;28;20038;-70
2023/12/10 02:53:53;;;;;;;1.90;1.80;;;7.50;99.90;;;;;;5117050;28;20043;-70
2023/12/10 02:56:19;;;;;;;1.10;1.10;;;7.50;99.90;;;;;;5116683;28;20036;-70
2023/12/10 02:58:44;;;;;;;1.40;1.30;;;7.50;99.90;;;;;;5116543;28;20432;-71
2023/12/10 03:01:12;;;;;;;2.55;2.35;;;7.50;99.90;;;;;;5116398;28;20044;-70
2023/12/10 03:03:37;;;;;;;0.90;0.90;;;7.60;99.90;;;;;;5116006;28;20118;-70
2023/12/10 03:06:03;;;;;;;0.80;0.80;;;7.60;99.90;;;;;;5116393;28;20177;-70
2023/12/10 03:08:29;;;;;;;1.45;1.38;;;7.50;99.90;;;;;;5116620;28;20115;-71
2023/12/10 03:10:54;;;;;;;1.10;1.08;;;7.50;99.90;;;;;;5116304;28;20061;-70
2023/12/10 03:13:20;;;;;;;1.75;1.65;;;7.60;99.90;;;;;;5116268;28;20048;-70
2023/12/10 03:15:46;;;;;;;0.82;0.82;;;7.50;99.90;;;;;;5116256;27;20118;-70
2023/12/10 03:18:11;;;;;;;0.88;0.88;;;7.50;99.90;;;;;;5116055;28;20046;-70
2023/12/10 03:20:37;;;;;;;1.90;1.80;;;7.60;99.90;;;;;;5116068;27;20122;-70
2023/12/10 03:23:03;;;;;;;0.80;0.80;;;7.50;99.90;;;;;;5115210;28;20079;-70
2023/12/10 03:25:28;;;;;;;0.85;0.85;;;7.50;99.90;;;;;;5116051;27;20077;-70
2023/12/10 03:27:54;;;;;;;0.90;0.90;;;7.60;99.90;;;;;;5116245;28;20432;-71
2023/12/10 03:30:20;;;;;;;1.02;0.93;;;7.60;99.90;;;;;;5115939;28;20039;-70
2023/12/10 03:32:46;;;;;;;0.90;0.90;;;7.60;99.90;;;;;;5116111;28;20045;-71
2023/12/10 03:35:11;;;;;;;1.20;1.10;;;7.50;99.90;;;;;;5116414;28;20039;-70
2023/12/10 03:37:37;;;;;;;0.90;0.90;;;7.50;99.90;;;;;;5114282;28;20043;-70
2023/12/10 03:40:03;;;;;;;2.75;2.55;;;7.50;99.90;;;;;;5115638;28;20130;-71
2023/12/10 03:42:29;;;;;;;1.10;1.00;;;7.50;99.90;;;;;;5115671;27;20399;-70
2023/12/10 03:44:56;;;;;;;0.82;0.82;;;7.50;99.90;;;;;;5115593;28;20043;-70
2023/12/10 03:47:22;;;;;;;0.90;0.90;;;7.50;99.90;;;;;;5115434;28;20043;-71
2023/12/10 03:49:47;;;;;;;0.90;0.90;;;7.40;99.90;;;;;;5115649;28;20114;-70
2023/12/10 03:52:13;;;;;;;0.90;0.90;;;7.40;99.90;;;;;;5115585;28;20031;-71
2023/12/10 03:54:39;;;;;;;0.82;0.82;;;7.40;99.90;;;;;;5115472;28;20043;-71
2023/12/10 03:57:05;;;;;;;0.90;0.90;;;7.40;99.90;;;;;;5115397;28;20031;-70
2023/12/10 03:59:31;;;;;;;1.80;1.70;;;7.40;99.90;;;;;;5115317;27;20053;-70
2023/12/10 04:01:56;;;;;;;0.80;0.80;;;7.40;99.90;;;;;;5115354;28;20035;-70
2023/12/10 04:04:22;;;;;;;1.45;1.35;;;7.40;99.90;;;;;;5114782;28;20132;-70
2023/12/10 04:06:48;;;;;;;2.45;1.10;;;7.40;99.90;;;;;;5115472;28;20043;-71
2023/12/10 04:09:13;;;;;;;1.70;1.58;;;7.40;99.90;;;;;;5115492;28;20439;-70
2023/12/10 04:11:39;;;;;;;0.90;0.90;;;7.40;99.90;;;;;;5115445;28;20047;-70
2023/12/10 04:14:09;;;;;;;0.88;0.88;;;7.50;99.90;;;;;;5115098;28;20044;-71
2023/12/10 04:16:36;;;;;;;21.52;3.28;;;7.40;99.90;;;;;;5114890;28;20079;-70
2023/12/10 04:19:01;;;;;;;0.90;0.90;;;7.40;99.90;;;;;;5115116;27;20434;-71
2023/12/10 04:21:27;;;;;;;1.48;1.38;;;7.40;99.90;;;;;;5114645;28;20093;-71
2023/12/10 04:23:53;;;;;;;0.90;0.90;;;7.40;99.90;;;;;;5115154;28;20058;-70
2023/12/10 04:26:19;;;;;;;4.30;3.88;;;7.40;99.90;;;;;;5114814;28;20044;-71
2023/12/10 04:28:45;;;;;;;0.90;0.90;;;7.40;99.90;;;;;;5114861;28;20051;-70
2023/12/10 04:31:11;;;;;;;0.90;0.90;;;7.40;99.90;;;;;;5114403;28;20391;-70
2023/12/10 04:33:36;;;;;;;0.80;0.80;;;7.40;99.90;;;;;;5114943;28;20061;-71
2023/12/10 04:36:03;;;;;;;0.80;0.80;;;7.40;99.90;;;;;;5114664;28;20075;-71
2023/12/10 04:38:29;;;;;;;;;;;7.40;99.90;;;;;;5114937;28;20039;-71
2023/12/10 04:40:55;;;;;;;0.90;0.90;;;7.40;99.90;;;;;;5114907;28;19916;-70
2023/12/10 04:43:20;;;;;;;10.90;3.78;;;7.40;99.90;;;;;;5114500;28;20040;-70
2023/12/10 04:45:46;;;;;;;2.50;1.75;;;7.40;99.90;;;;;;5114148;28;20101;-71
2023/12/10 04:48:15;;;;;;;0.90;0.90;;;7.40;99.90;;;;;;5114326;28;20366;-70
2023/12/10 04:50:41;;;;;;;1.08;0.98;;;7.40;99.90;;;;;;5114370;28;20086;-70
2023/12/10 04:53:10;;;;;;;1.50;1.27;;;7.40;99.90;;;;;;5114382;27;20075;-71
2023/12/10 04:55:35;;;;;;;0.90;0.90;;;7.50;99.90;;;;;;5114297;27;20044;-70
2023/12/10 04:58:01;;;;;;;0.90;0.90;;;7.50;99.90;;;;;;5114396;28;20513;-70
2023/12/10 05:00:26;;;;;;;1.00;1.00;;;7.50;99.90;;;;;;5114290;28;20042;-70
2023/12/10 05:02:52;;;;;;;1.17;0.90;;;7.50;99.90;;;;;;5114158;28;20042;-70
2023/12/10 05:05:18;;;;;;;0.90;0.90;;;7.50;99.90;;;;;;5114601;28;20383;-71
2023/12/10 05:07:44;;;;;;;0.90;0.90;;;7.50;99.90;;;;;;5114806;28;20079;-70
2023/12/10 05:10:10;;;;;;;0.90;0.90;;;7.50;99.90;;;;;;5114225;28;20042;-71
2023/12/10 05:12:36;;;;;;;1.10;1.05;;;7.50;99.90;;;;;;5113912;28;20476;-71
2023/12/10 05:15:02;;;;;;;2.28;2.08;;;7.50;99.90;;;;;;5114008;28;20036;-71
2023/12/10 05:17:28;;;;;;;1.52;1.42;;;7.50;99.90;;;;;;5113885;28;20047;-71
2023/12/10 05:19:53;;;;;;;0.90;0.90;;;7.50;99.90;;;;;;5114122;28;20472;-70
2023/12/10 05:22:20;;;;;;;0.88;0.88;;;7.50;99.90;;;;;;5113653;28;20499;-71
2023/12/10 05:24:46;;;;;;;;;;;7.50;99.90;;;;;;5114250;28;20047;-71
2023/12/10 05:27:13;;;;;;;0.90;0.90;;;7.60;99.90;;;;;;5114063;28;19922;-71
2023/12/10 05:29:39;;;;;;;0.90;0.90;;;7.60;99.90;;;;;;5113872;28;20031;-71
2023/12/10 05:32:05;;;;;;;0.90;0.90;;;7.60;99.90;;;;;;5113045;28;20093;-71
2023/12/10 05:34:31;;;;;;;0.88;0.88;;;7.60;99.90;;;;;;5114185;28;20038;-71
2023/12/10 05:36:57;;;;;;;2.10;2.00;;;7.60;99.90;;;;;;5113938;28;20039;-71
2023/12/10 05:39:22;;;;;;;1.00;1.00;;;7.60;99.90;;;;;;5114493;28;20039;-71
2023/12/10 05:41:48;;;;;;;5.72;3.90;;;7.60;99.90;;;;;;5113912;28;20344;-71
2023/12/10 05:44:13;;;;;;;1.25;1.15;;;7.60;99.90;;;;;;5113815;28;20413;-71
2023/12/10 05:46:39;;;;;;;0.88;0.88;;;7.60;99.90;;;;;;5113934;28;20040;-71
2023/12/10 05:49:05;;;;;;;0.88;0.88;;;7.60;99.90;;;;;;5113736;28;20046;-71
2023/12/10 05:51:30;;;;;;;1.15;1.10;;;7.60;99.90;;;;;;5114309;28;20060;-70
2023/12/10 05:53:56;;;;;;;1.30;1.23;;;7.60;99.90;;;;;;5113667;28;20116;-71
2023/12/10 05:56:22;;;;;;;1.00;1.00;;;7.70;99.90;;;;;;5113774;28;20040;-71
2023/12/10 05:58:48;;;;;;;1.10;1.00;;;7.70;99.90;;;;;;5113622;28;20493;-70
2023/12/10 06:01:14;;;;;;;0.82;0.82;;;7.70;99.90;;;;;;5116894;28;20039;-70
2023/12/10 06:03:39;;;;;;;1.17;1.08;;;7.70;99.90;;;;;;5117698;28;20045;-71
2023/12/10 06:06:05;;;;;;;2.42;2.22;;;7.70;99.90;;;;;;5117526;28;20090;-72
2023/12/10 06:08:31;;;;;;;2.25;2.15;;;7.70;99.90;;;;;;5117536;28;20042;-71
2023/12/10 06:10:57;;;;;;;1.20;1.10;;;7.70;99.90;;;;;;5117252;28;20032;-70
2023/12/10 06:13:22;;;;;;;1.00;1.00;;;7.80;99.90;;;;;;5117069;28;20528;-71
2023/12/10 06:15:48;;;;;;;1.75;1.15;;;7.80;99.90;;;;;;5117122;28;20040;-71
2023/12/10 06:18:14;;;;;;;1.00;1.00;;;7.80;99.90;;;;;;5117608;28;20042;-71
2023/12/10 06:20:39;;;;;;;0.90;0.90;;;7.80;99.90;;;;;;5117938;28;20040;-71
2023/12/10 06:23:05;;;;;;;0.80;0.80;;;7.80;99.90;;;;;;5117842;28;20452;-71
2023/12/10 06:25:31;;;;;;;1.63;1.52;;;7.90;99.90;;;;;;5117538;28;20040;-71
2023/12/10 06:27:56;;;;;;;0.98;0.98;;;7.90;99.90;;;;;;5117188;28;20050;-71
2023/12/10 06:30:23;;;;;;;1.00;1.00;;;7.90;99.90;;;;;;5117118;27;20039;-70
2023/12/10 06:32:49;;;;;;;0.85;0.85;;;7.90;99.90;;;;;;5117452;28;20032;-70
2023/12/10 06:35:14;;;;;;;0.90;0.90;;;7.90;99.90;;;;;;5117169;28;20043;-71
2023/12/10 06:37:40;;;;;;;0.82;0.82;;;7.90;99.90;;;;;;5116955;28;20063;-70
2023/12/10 06:40:07;;;;;;;11.97;2.27;;;7.90;99.90;;;;;;5116885;28;20035;-71
2023/12/10 06:42:34;;;;;;;0.80;0.80;;;8.00;99.90;;;;;;5116743;28;20036;-71
2023/12/10 06:45:00;;;;;;;0.85;0.85;;;8.00;99.90;;;;;;5116682;28;20039;-71
2023/12/10 06:47:26;;;;;;;0.90;0.90;;;8.00;99.90;;;;;;5116806;28;20058;-70
2023/12/10 06:49:51;;;;;;;1.08;1.00;;;8.00;99.90;;;;;;5116634;28;20031;-71
2023/12/10 06:52:17;;;;;;;1.05;1.00;;;8.00;99.90;;;;;;5116667;28;20054;-70
2023/12/10 06:54:43;;;;;;;0.90;0.90;;;8.00;99.90;;;;;;5115311;28;20043;-71
2023/12/10 06:57:09;;;;;;;0.80;0.80;;;8.00;99.90;;;;;;5116722;28;20103;-70
2023/12/10 06:59:34;;;;;;;11.55;3.10;;;8.00;99.90;;;;;;5116490;28;20081;-70
2023/12/10 07:02:00;;;;;;;0.95;0.95;;;8.00;99.90;;;;;;5115976;28;20058;-70
2023/12/10 07:04:26;;;;;;;0.90;0.90;;;8.00;99.90;;;;;;5116444;28;20040;-70
2023/12/10 07:06:51;;;;;;;1.00;1.00;;;7.90;99.90;;;;;;5116396;28;20035;-70
2023/12/10 07:09:17;;;;;;;1.48;1.38;;;7.90;99.90;;;;;;5116561;28;20118;-70
2023/12/10 07:11:43;;;;;;;0.90;0.90;;;7.90;99.90;;;;;;5115951;28;20036;-71
2023/12/10 07:14:08;;;;;;;0.85;0.85;;;7.90;99.90;;;;;;5115108;28;20040;-71
2023/12/10 07:16:34;;;;;;;0.90;0.90;;;7.90;99.90;;;;;;5115712;28;20101;-77
2023/12/10 07:19:00;;;;;;;0.90;0.90;;;8.00;99.90;;;;;;5116104;28;20035;-73
2023/12/10 07:21:25;;;;;;;1.10;1.00;;;8.00;99.90;;;;;;5116544;28;20367;-72
2023/12/10 07:23:51;;;;;;;0.80;0.80;;;8.00;99.90;;;;;;5116202;28;20386;-73
2023/12/10 07:26:24;;;;;;;0.90;0.90;;;8.00;99.90;;;;;;5116262;28;20039;-73
2023/12/10 07:28:51;;;;;;;0.90;0.90;;;8.00;99.90;;;;;;5115832;28;20122;-71
2023/12/10 07:31:19;;;;;;;0.90;0.90;;;8.00;99.90;;;;;;5115902;28;20120;-71
2023/12/10 07:33:45;;;;;;;0.90;0.90;;;8.00;99.90;;;;;;5115705;28;20046;-72
2023/12/10 07:36:12;;;;;;;0.80;0.80;;;8.00;99.90;;;;;;5115840;28;20039;-71
2023/12/10 07:38:38;;;;;;;0.90;0.90;;;8.00;99.90;;;;;;5115848;28;20067;-71
2023/12/10 07:41:04;;;;;;;0.80;0.80;;;8.00;99.90;;;;;;5115742;27;20471;-71
2023/12/10 07:43:30;;;;;;;0.90;0.90;;;8.00;99.90;;;;;;5115739;28;20490;-71
2023/12/10 07:45:56;;;;;;;0.90;0.90;;;8.00;99.90;;;;;;5116123;28;20364;-71
2023/12/10 07:48:22;;;;;;;1.20;1.10;;;8.00;99.90;;;;;;5115681;28;20043;-70
2023/12/10 07:50:47;;;;;;;1.08;1.05;;;8.00;99.90;;;;;;5115508;28;20502;-71
2023/12/10 07:53:13;;;;;;;0.90;0.90;;;8.00;99.90;;;;;;5115437;28;20027;-70
2023/12/10 07:55:39;;;;;;;0.80;0.80;;;8.00;99.90;;;;;;5115352;28;20039;-70
2023/12/10 07:58:05;;;;;;;1.42;1.33;;;8.00;99.90;;;;;;5115269;28;20035;-71
2023/12/10 08:00:31;;;;;;;0.90;0.90;;;8.00;99.90;;;;;;5115289;28;20035;-70
2023/12/10 08:02:57;;;;;;;0.90;0.90;;;8.00;99.90;;;;;;5115219;28;20082;-70
2023/12/10 08:05:22;;;;;;;13.55;2.13;;;8.00;99.90;;;;;;5115468;28;20075;-71
2023/12/10 08:07:48;;;;;;;1.10;1.00;;;7.90;99.90;;;;;;5115618;28;20596;-71
2023/12/10 08:10:14;;;;;;;1.35;1.25;;;8.00;99.90;;;;;;5114818;28;20040;-70
2023/12/10 08:12:39;;;;;;;0.90;0.90;;;8.00;99.90;;;;;;5114811;28;20032;-78
2023/12/10 08:15:05;;;;;;;0.90;0.90;;;8.00;99.90;;;;;;5114653;28;20035;-73
2023/12/10 08:17:31;;;;;;;0.90;0.90;;;8.00;99.90;;;;;;5115407;28;20082;-70
2023/12/10 08:19:57;;;;;;;0.90;0.90;;;8.00;99.90;;;;;;5115237;28;20374;-75
2023/12/10 08:22:23;;;;;;;0.93;0.93;;;8.00;99.90;;;;;;5113071;28;20048;-71
2023/12/10 08:24:48;;;;;;;1.50;1.40;;;8.00;99.90;;;;;;5114889;28;20048;-71
2023/12/10 08:27:14;;;;;;;1.00;1.00;;;8.00;99.90;;;;;;5114875;28;20090;-71
2023/12/10 08:29:40;;;;;;;1.00;0.90;;;8.00;99.90;;;;;;5114926;28;20112;-71
2023/12/10 08:32:06;;;;;;;0.90;0.90;;;8.00;99.90;;;;;;5115347;28;20096;-69
2023/12/10 08:34:31;;;;;;;0.90;0.90;;;8.00;99.90;;;;;;5114677;28;20042;-70
2023/12/10 08:36:57;;;;;;;1.00;1.00;;;8.00;99.90;;;;;;5114267;28;20088;-70
2023/12/10 08:39:23;;;;;;;0.90;0.90;;;8.00;99.90;;;;;;5114406;28;20054;-70
2023/12/10 08:41:49;;;;;;;0.80;0.80;;;8.00;99.90;;;;;;5114569;27;20082;-70
2023/12/10 08:44:15;;;;;;;0.90;0.90;;;8.00;99.90;;;;;;5114486;28;20084;-70
2023/12/10 08:46:41;;;;;;;0.90;0.90;;;8.00;99.90;;;;;;5114686;28;20047;-70
2023/12/10 08:49:06;;;;;;;1.55;1.45;;;8.00;99.90;;;;;;5114413;28;20046;-70
2023/12/10 08:51:32;;;;;;;0.90;0.90;;;8.00;99.90;;;;;;5114380;28;20031;-70
2023/12/10 08:53:59;;;;;;;1.30;1.20;;;8.00;99.90;;;;;;5114454;28;20172;-70
2023/12/10 08:56:25;;;;;;;;;;;8.00;99.90;;;;;;5114680;28;20123;-70
2023/12/10 08:58:51;;;;;;;0.90;0.90;;;8.00;99.90;;;;;;5114168;28;19962;-69
2023/12/10 09:01:16;;;;;;;0.90;0.90;;;8.00;99.90;;;;;;5114184;28;20460;-70
2023/12/10 09:03:42;;;;;;;0.90;0.90;;;8.00;99.90;;;;;;5114057;28;20043;-70
2023/12/10 09:06:09;;;;;;;1.58;1.48;;;8.00;99.90;;;;;;5114214;28;20044;-70
2023/12/10 09:08:34;;;;;;;0.85;0.85;;;8.10;99.90;;;;;;5114006;28;20042;-70
2023/12/10 09:11:03;;;;;;;0.90;0.90;;;8.10;99.90;;;;;;5114305;28;20027;-70
2023/12/10 09:13:30;;;;;;;0.90;0.90;;;8.10;99.90;;;;;;5114267;28;20485;-70
2023/12/10 09:15:56;;;;;;;;;;;8.10;99.90;;;;;;5114533;28;20084;-70
2023/12/10 09:18:22;;;;;;;1.13;1.13;;;8.10;99.90;;;;;;5114188;28;19915;-70
2023/12/10 09:20:48;;;;;;;1.17;1.08;;;8.10;99.90;;;;;;5113878;28;20478;-70
2023/12/10 09:23:14;;;;;;;0.85;0.85;;;8.00;99.90;;;;;;5114234;28;20047;-70
2023/12/10 09:25:39;;;;;;;0.88;0.88;;;8.00;99.90;;;;;;5114065;28;20032;-70
2023/12/10 09:28:05;;;;;;;0.98;0.98;;;8.00;99.90;;;;;;5113880;28;20040;-70
2023/12/10 09:30:31;;;;;;;0.88;0.88;;;8.00;99.90;;;;;;5113956;28;20044;-70
2023/12/10 09:32:56;;;;;;;0.85;0.85;;;8.00;99.90;;;;;;5114257;28;20348;-70
2023/12/10 09:35:22;;;;;;;0.80;0.80;;;8.00;99.90;;;;;;5117455;28;20047;-70
2023/12/10 09:37:47;;;;;;;1.20;1.15;;;8.00;99.90;;;;;;5118289;28;20051;-70
2023/12/10 09:40:13;;;;;;;1.15;1.05;;;8.00;99.90;;;;;;5117989;28;20506;-69
2023/12/10 09:42:39;;;;;;;1.02;1.00;;;8.00;99.90;;;;;;5117916;28;20039;-70
2023/12/10 09:45:06;;;;;;;0.82;0.82;;;8.00;99.90;;;;;;5117993;28;20047;-70
2023/12/10 09:47:33;;;;;;;;;;;8.00;99.90;;;;;;5118343;28;20077;-70
2023/12/10 09:49:59;;;;;;;1.38;1.30;;;8.00;99.90;;;;;;5118140;28;19919;-69
2023/12/10 09:52:25;;;;;;;0.90;0.90;;;8.10;99.90;;;;;;5117584;28;20140;-70
2023/12/10 09:54:53;;;;;;;1.00;1.00;;;8.10;99.90;;;;;;5117934;28;20479;-70
2023/12/10 09:57:20;;;;;;;0.80;0.80;;;8.10;99.90;;;;;;5118081;28;20040;-69
2023/12/10 09:59:46;;;;;;;0.90;0.90;;;8.10;99.90;;;;;;5117989;28;20402;-69
2023/12/10 10:02:12;;;;;;;2.35;1.00;;;8.10;99.90;;;;;;5117632;28;20120;-70
2023/12/10 10:04:41;;;;;;;1.20;1.10;;;8.10;99.90;;;;;;5117578;28;20088;-69
2023/12/10 10:07:06;;;;;;;0.80;0.80;;;8.10;99.90;;;;;;5117518;28;20035;-70
2023/12/10 10:09:38;;;;;;;0.80;0.80;;;8.10;99.90;;;;;;5117476;28;20050;-70
2023/12/10 10:12:05;;;;;;;0.80;0.80;;;8.10;99.90;;;;;;5117549;28;20048;-70
2023/12/10 10:14:31;;;;;;;1.85;1.75;;;8.10;99.90;;;;;;5117867;28;20031;-70
2023/12/10 10:16:57;;;;;;;0.82;0.82;;;8.10;99.90;;;;;;5117330;28;20379;-70
2023/12/10 10:19:22;;;;;;;0.85;0.85;;;8.10;99.90;;;;;;5117276;28;20096;-70
2023/12/10 10:21:48;;;;;;;0.80;0.80;;;8.10;99.90;;;;;;5117247;28;20051;-70
2023/12/10 10:24:14;;;;;;;0.90;0.90;;;8.10;99.90;;;;;;5117161;28;20126;-70
2023/12/10 10:26:40;;;;;;;0.90;0.90;;;8.10;99.90;;;;;;5117099;28;20118;-70
2023/12/10 10:29:06;;;;;;;0.90;0.90;;;8.10;99.90;;;;;;5117170;28;20079;-70
2023/12/10 10:31:33;;;;;;;4.00;3.63;;;8.10;99.90;;;;;;5117023;28;20039;-69
2023/12/10 10:34:02;;;;;;;0.90;0.90;;;8.10;99.90;;;;;;5117073;28;20043;-70
2023/12/10 10:36:29;;;;;;;1.23;1.17;;;8.10;99.90;;;;;;5116581;28;20131;-70
2023/12/10 10:38:56;;;;;;;1.63;1.52;;;8.10;99.90;;;;;;5116801;28;20368;-75
2023/12/10 10:41:22;;;;;;;;;;;8.10;99.90;;;;;;5116971;28;20111;-73
2023/12/10 10:43:48;;;;;;;1.58;1.48;;;8.20;99.90;;;;;;5116734;28;19916;-68
2023/12/10 10:46:19;;;;;;;0.85;0.85;;;8.20;99.90;;;;;;5116120;28;20039;-68
2023/12/10 10:48:47;;;;;;;1.13;1.05;;;8.20;99.90;;;;;;5116909;28;20039;-69
2023/12/10 10:51:13;;;;;;;0.80;0.80;;;8.20;99.90;;;;;;5116860;28;20379;-69
2023/12/10 10:53:40;;;;;;;0.80;0.80;;;8.20;99.90;;;;;;5116498;28;20051;-70
2023/12/10 10:56:07;;;;;;;1.45;1.35;;;8.20;99.90;;;;;;5116574;28;20093;-70
2023/12/10 10:58:33;;;;;;;0.90;0.90;;;8.20;99.90;;;;;;5116672;28;20035;-70
2023/12/10 11:00:59;;;;;;;1.73;1.63;;;8.20;99.90;;;;;;5116387;28;20509;-69
2023/12/10 11:03:26;;;;;;;1.20;1.10;;;8.20;99.90;;;;;;5116514;28;20031;-70
2023/12/10 11:05:55;;;;;;;0.90;0.90;;;8.20;99.90;;;;;;5116747;28;20031;-71
2023/12/10 11:08:23;;;;;;;1.40;1.30;;;8.20;99.90;;;;;;5116291;28;20039;-70
2023/12/10 11:10:55;;;;;;;0.90;0.90;;;8.20;99.90;;;;;;5116332;28;20115;-68
2023/12/10 11:13:46;;;;;;;0.80;0.80;;;8.20;99.90;;;;;;5116367;28;20032;-69
2023/12/10 11:16:12;;;;;;;0.90;0.90;;;8.20;99.90;;;;;;5116431;28;20042;-70
2023/12/10 11:18:57;;;;;;;0.90;0.90;;;8.20;99.90;;;;;;5116253;28;20036;-73
2023/12/10 11:21:23;;;;;;;1.00;1.00;;;8.20;99.90;;;;;;5115912;28;20047;-69
2023/12/10 11:23:49;;;;;;;0.90;0.90;;;8.20;99.90;;;;;;5116176;28;20087;-69
2023/12/10 11:26:15;;;;;;;0.80;0.80;;;8.20;99.90;;;;;;5115772;28;20082;-69
2023/12/10 11:28:44;;;;;;;0.93;0.90;;;8.20;99.90;;;;;;5115838;28;20032;-71
2023/12/10 11:31:10;;;;;;;1.10;1.10;;;8.20;99.90;;;;;;5115626;28;20040;-69
2023/12/10 11:33:40;;;;;;;0.93;0.90;;;8.20;99.90;;;;;;5097556;28;20043;-69
2023/12/10 11:36:09;;;;;;;0.90;0.90;;;8.20;99.90;;;;;;5115770;28;20101;-68
2023/12/10 11:38:36;;;;;;;1.45;1.35;;;8.30;99.90;;;;;;5115674;28;20041;-68
2023/12/10 11:41:03;;;;;;;0.90;0.90;;;8.30;99.90;;;;;;5115723;28;20071;-69
2023/12/10 11:43:28;;;;;;;0.85;0.85;;;8.30;99.90;;;;;;5115513;28;20547;-74
2023/12/10 11:45:54;;;;;;;0.90;0.90;;;8.40;99.90;;;;;;5115414;28;20032;-71
2023/12/10 11:48:20;;;;;;;0.80;0.80;;;8.40;99.90;;;;;;5115203;28;20532;-69
2023/12/10 11:50:48;;;;;;;0.90;0.90;;;8.40;99.90;;;;;;5121103;28;20113;-68
2023/12/10 11:53:18;;;;;;;0.80;0.80;;;8.50;99.90;;;;;;5115546;28;20360;-68
2023/12/10 11:55:44;;;;;;;0.80;0.80;;;8.50;99.90;;;;;;5115318;28;20425;-67
2023/12/10 11:58:10;;;;;;;0.90;0.90;;;8.50;99.90;;;;;;5114349;28;20046;-69
2023/12/10 12:00:36;;;;;;;0.90;0.90;;;8.50;99.90;;;;;;5115086;28;20357;-72
2023/12/10 12:03:05;;;;;;;1.38;1.27;;;8.50;99.90;;;;;;5115056;28;20035;-70
2023/12/10 12:05:31;;;;;;;1.73;1.63;;;8.50;99.90;;;;;;5115226;28;20487;-71
2023/12/10 12:07:59;;;;;;;0.80;0.80;;;8.50;99.90;;;;;;5114903;28;20475;-71
2023/12/10 12:10:34;;;;;;;0.80;0.80;;;8.50;99.90;;;;;;5114932;28;20039;-73
2023/12/10 12:13:00;;;;;;;0.80;0.80;;;8.50;99.90;;;;;;5115191;28;20048;-72
2023/12/10 12:15:26;;;;;;;0.93;0.90;;;8.50;99.90;;;;;;5114524;28;20039;-71
2023/12/10 12:17:58;;;;;;;1.00;1.00;;;8.50;99.90;;;;;;5111415;27;20395;-71
2023/12/10 12:20:28;;;;;;;4.00;1.20;;;8.50;99.90;;;;;;5111245;28;20085;-72
2023/12/10 12:22:53;;;;;;;0.80;0.80;;;8.50;99.90;;;;;;5111003;28;20528;-70
2023/12/10 12:25:21;;;;;;;0.80;0.80;;;8.50;99.90;;;;;;5111267;28;20032;-68
2023/12/10 12:27:49;;;;;;;0.80;0.80;;;8.50;99.90;;;;;;5111241;28;20032;-74
2023/12/10 12:30:18;;;;;;;0.80;0.80;;;8.50;99.90;;;;;;5111018;28;20089;-69
2023/12/10 12:32:45;;;;;;;0.95;0.95;;;8.50;99.90;;;;;;5111087;28;20035;-69
2023/12/10 12:35:11;;;;;;;1.40;1.30;;;8.50;99.90;;;;;;5111185;28;20044;-68
2023/12/10 12:37:37;;;;;;;0.70;0.70;;;8.50;99.90;;;;;;5110781;28;20298;-73
2023/12/10 12:40:04;;;;;;;0.70;0.70;;;8.50;99.90;;;;;;5111178;28;20052;-69
2023/12/10 12:42:29;;;;;;;;;;;8.50;99.90;;;;;;5111197;28;20048;-74
2023/12/10 12:44:55;;;;;;;0.80;0.80;;;8.60;99.90;;;;;;5110582;28;20045;-72
2023/12/10 12:47:21;;;;;;;2.05;1.17;;;8.60;99.90;;;;;;5111329;28;20050;-72
2023/12/10 12:49:46;;;;;;;0.80;0.80;;;8.60;99.90;;;;;;5111403;28;20138;-73
2023/12/10 12:52:13;;;;;;;0.80;0.80;;;8.60;99.90;;;;;;5109919;28;20040;-74